Time;durP1;ratioP1;P1;durP2;ratioP2;P2;SDS_P1;SDS_P2;PMS_P1;PMS_P2;Temp;Humidity;BMP_temperature;BMP_pressure;BME280_temperature;BME280_humidity;BME280_pressure;Samples;Min_cycle;Max_cycle;Signal;HPM_P1;HPM_P2
2022/06/15 00:02:10;;;;;;;0.00;0.00;;;20.00;74.20;;;;;;4972193;28;20394;-63
2022/06/15 00:04:36;;;;;;;0.10;0.10;;;19.90;74.90;;;;;;4971874;28;20038;-63
2022/06/15 00:07:02;;;;;;;3.63;1.17;;;20.00;75.30;;;;;;4972035;28;20035;-63
2022/06/15 00:09:28;;;;;;;0.00;0.00;;;20.00;75.40;;;;;;4971511;28;20034;-63
2022/06/15 00:11:54;;;;;;;0.00;0.00;;;20.00;75.60;;;;;;4971372;28;20474;-63
2022/06/15 00:14:27;;;;;;;0.10;0.10;;;19.90;76.00;;;;;;4986801;28;20031;-63
2022/06/15 00:16:53;;;;;;;0.00;0.00;;;19.80;77.20;;;;;;4986536;28;20126;-63
2022/06/15 00:19:20;;;;;;;0.73;0.50;;;19.70;78.40;;;;;;4971459;28;20082;-63
2022/06/15 00:21:47;;;;;;;0.10;0.10;;;19.40;81.10;;;;;;4986724;28;20029;-63
2022/06/15 00:24:13;;;;;;;0.03;0.03;;;19.30;81.80;;;;;;4971968;28;20105;-63
2022/06/15 00:26:39;;;;;;;0.10;0.10;;;19.20;82.60;;;;;;4971904;28;20109;-63
2022/06/15 00:29:05;;;;;;;0.22;0.20;;;19.10;83.10;;;;;;4985918;28;20031;-63
2022/06/15 00:31:31;;;;;;;0.47;0.47;;;19.00;82.70;;;;;;4970507;28;20431;-63
2022/06/15 00:33:57;;;;;;;2.72;1.85;;;19.10;82.10;;;;;;4970577;28;20038;-63
2022/06/15 00:36:23;;;;;;;0.20;0.20;;;19.20;80.90;;;;;;4986434;28;20078;-63
2022/06/15 00:38:53;;;;;;;0.00;0.00;;;19.30;80.60;;;;;;4985821;28;20023;-63
2022/06/15 00:41:28;;;;;;;0.00;0.00;;;19.40;79.30;;;;;;4971562;28;20023;-63
2022/06/15 00:44:02;;;;;;;0.05;0.05;;;19.40;78.60;;;;;;4986979;28;20034;-63
2022/06/15 00:46:42;;;;;;;0.43;0.40;;;19.20;80.80;;;;;;4986779;28;20039;-63
2022/06/15 00:49:28;;;;;;;0.00;0.00;;;19.10;82.80;;;;;;4985335;28;20038;-63
2022/06/15 00:52:16;;;;;;;0.00;0.00;;;19.00;80.30;;;;;;4971223;28;20042;-63
2022/06/15 00:54:46;;;;;;;0.20;0.17;;;19.10;80.40;;;;;;4986413;28;20027;-63
2022/06/15 00:57:13;;;;;;;0.00;0.00;;;19.10;80.90;;;;;;4986343;28;20022;-63
2022/06/15 00:59:54;;;;;;;0.00;0.00;;;19.20;81.40;;;;;;4985589;28;20030;-64
2022/06/15 01:02:20;;;;;;;0.15;0.15;;;19.20;80.90;;;;;;4986146;28;20026;-63
2022/06/15 01:05:19;;;;;;;0.13;0.13;;;19.30;81.40;;;;;;4968743;28;20042;-63
2022/06/15 01:08:33;;;;;;;0.00;0.00;;;19.30;81.60;;;;;;4970656;28;20391;-63
2022/06/15 01:11:29;;;;;;;1.02;0.50;;;19.30;81.40;;;;;;4963509;28;20043;-61
2022/06/15 01:14:32;;;;;;;0.00;0.00;;;19.20;81.90;;;;;;4975146;28;20050;-61
2022/06/15 01:17:11;;;;;;;0.80;0.30;;;19.10;82.30;;;;;;4969368;28;20106;-64
2022/06/15 01:20:24;;;;;;;0.00;0.00;;;18.80;82.80;;;;;;4955157;28;20086;-62
2022/06/15 01:23:26;;;;;;;0.20;0.20;;;18.90;83.20;;;;;;4954291;29;20174;-62
2022/06/15 01:26:49;;;;;;;0.65;0.43;;;18.70;83.00;;;;;;4954767;29;20122;-62
2022/06/15 01:29:48;;;;;;;0.85;0.85;;;18.50;83.00;;;;;;4952786;28;20115;-62
2022/06/15 01:32:48;;;;;;;0.30;0.30;;;18.50;84.00;;;;;;4955730;28;20074;-62
2022/06/15 01:35:55;;;;;;;0.83;0.77;;;18.30;83.60;;;;;;4955454;28;20110;-63
2022/06/15 01:38:30;;;;;;;3.70;0.22;;;18.30;83.80;;;;;;4954038;29;20027;-63
2022/06/15 01:41:21;;;;;;;0.30;0.30;;;18.30;84.10;;;;;;4960771;28;20102;-63
2022/06/15 01:43:56;;;;;;;;;;;18.40;84.00;;;;;;4973908;28;20114;-62
2022/06/15 01:46:23;;;;;;;0.00;0.00;;;18.40;84.10;;;;;;4973535;28;19917;-62
2022/06/15 01:48:53;;;;;;;3.40;1.02;;;18.20;84.90;;;;;;4974125;28;20022;-62
2022/06/15 01:51:24;;;;;;;0.00;0.00;;;18.30;85.30;;;;;;4973446;28;20523;-63
2022/06/15 01:54:08;;;;;;;0.25;0.10;;;18.30;85.30;;;;;;4973043;28;20122;-62
2022/06/15 01:56:46;;;;;;;0.30;0.30;;;18.30;86.30;;;;;;4973254;28;20162;-62
2022/06/15 01:59:34;;;;;;;0.00;0.00;;;18.40;83.80;;;;;;4972413;28;20398;-63
2022/06/15 02:02:34;;;;;;;0.08;0.08;;;18.40;83.70;;;;;;4974181;28;20058;-63
2022/06/15 02:05:18;;;;;;;0.00;0.00;;;18.50;82.30;;;;;;4973189;28;20653;-63
2022/06/15 02:08:18;;;;;;;0.32;0.10;;;18.50;82.70;;;;;;4974009;28;20027;-63
2022/06/15 02:11:15;;;;;;;0.28;0.28;;;18.70;81.30;;;;;;4973591;28;20050;-63
2022/06/15 02:14:26;;;;;;;0.00;0.00;;;18.70;80.90;;;;;;4973951;28;20043;-63
2022/06/15 02:16:59;;;;;;;;;;;18.70;81.40;;;;;;4953145;28;20399;-62
2022/06/15 02:19:36;;;;;;;4.97;0.75;;;18.70;81.20;;;;;;4951845;28;19933;-62
2022/06/15 02:22:08;;;;;;;0.20;0.10;;;18.60;81.10;;;;;;4953566;29;20480;-63
2022/06/15 02:24:36;;;;;;;1.55;0.20;;;18.50;81.10;;;;;;4954300;28;20043;-63
2022/06/15 02:27:05;;;;;;;0.30;0.30;;;18.20;81.60;;;;;;4953351;28;20023;-62
2022/06/15 02:29:37;;;;;;;0.28;0.28;;;18.10;81.80;;;;;;4952787;29;20041;-62
2022/06/15 02:32:10;;;;;;;0.20;0.20;;;18.00;82.30;;;;;;5002148;23;20093;-63
2022/06/15 02:34:37;;;;;;;4.97;0.43;;;17.90;83.20;;;;;;4990486;28;20030;-64
2022/06/15 02:37:04;;;;;;;0.00;0.00;;;17.90;83.00;;;;;;4973816;28;20030;-64
2022/06/15 02:39:30;;;;;;;0.10;0.10;;;17.70;83.60;;;;;;4972807;28;20105;-63
2022/06/15 02:42:21;;;;;;;0.13;0.13;;;17.80;83.20;;;;;;4973540;28;20111;-63
2022/06/15 02:44:49;;;;;;;0.00;0.00;;;17.90;83.00;;;;;;4972329;28;20479;-63
2022/06/15 02:47:19;;;;;;;0.00;0.00;;;17.80;84.00;;;;;;4972302;28;20282;-64
2022/06/15 02:49:48;;;;;;;0.00;0.00;;;17.90;84.10;;;;;;4972895;28;20026;-62
2022/06/15 02:52:15;;;;;;;0.00;0.00;;;17.90;83.90;;;;;;4972436;28;20038;-62
2022/06/15 02:54:52;;;;;;;0.00;0.00;;;18.00;84.20;;;;;;4971714;28;20046;-62
2022/06/15 02:57:20;;;;;;;0.00;0.00;;;18.20;83.10;;;;;;4973235;28;20054;-62
2022/06/15 02:59:47;;;;;;;0.00;0.00;;;18.30;82.90;;;;;;4971485;28;20089;-64
2022/06/15 03:02:14;;;;;;;0.13;0.10;;;18.50;82.70;;;;;;4973307;28;20041;-65
2022/06/15 03:04:45;;;;;;;0.10;0.10;;;18.40;83.10;;;;;;4972025;28;20039;-64
2022/06/15 03:07:13;;;;;;;0.00;0.00;;;18.30;82.70;;;;;;4972907;28;20031;-64
2022/06/15 03:09:40;;;;;;;0.25;0.20;;;17.80;83.50;;;;;;4972073;28;20487;-65
2022/06/15 03:12:07;;;;;;;0.00;0.00;;;17.80;84.30;;;;;;4973197;28;20085;-65
2022/06/15 03:14:34;;;;;;;0.00;0.00;;;17.50;85.70;;;;;;4971790;28;20027;-64
2022/06/15 03:17:00;;;;;;;0.20;0.20;;;17.40;86.20;;;;;;4973242;28;20030;-64
2022/06/15 03:19:26;;;;;;;0.45;0.45;;;17.30;87.00;;;;;;4972072;28;20113;-64
2022/06/15 03:21:52;;;;;;;1.20;0.52;;;17.40;87.00;;;;;;4972801;28;20504;-64
2022/06/15 03:24:18;;;;;;;0.00;0.00;;;17.40;87.70;;;;;;4972610;28;20030;-64
2022/06/15 03:26:44;;;;;;;0.17;0.17;;;17.60;87.30;;;;;;4972602;28;20506;-64
2022/06/15 03:29:10;;;;;;;0.13;0.10;;;17.60;87.60;;;;;;4986789;28;20030;-64
2022/06/15 03:31:36;;;;;;;0.00;0.00;;;17.70;87.50;;;;;;4972301;28;20030;-64
2022/06/15 03:34:02;;;;;;;0.00;0.00;;;17.90;86.70;;;;;;4972437;28;20487;-64
2022/06/15 03:36:28;;;;;;;0.00;0.00;;;17.80;86.50;;;;;;4971061;28;20026;-64
2022/06/15 03:38:53;;;;;;;0.10;0.10;;;17.70;87.30;;;;;;4971467;28;20068;-64
2022/06/15 03:41:20;;;;;;;0.20;0.17;;;17.50;88.30;;;;;;4972311;28;20458;-64
2022/06/15 03:43:46;;;;;;;0.10;0.10;;;17.30;89.60;;;;;;4971084;28;20033;-64
2022/06/15 03:46:13;;;;;;;0.00;0.00;;;17.30;89.80;;;;;;4972581;28;20113;-65
2022/06/15 03:48:39;;;;;;;0.00;0.00;;;17.20;90.10;;;;;;4971720;28;20464;-65
2022/06/15 03:51:06;;;;;;;0.20;0.10;;;17.20;90.30;;;;;;4965890;28;20058;-67
2022/06/15 03:53:31;;;;;;;4.35;0.52;;;17.10;90.70;;;;;;4968635;28;20022;-67
2022/06/15 03:55:57;;;;;;;0.00;0.00;;;17.00;90.80;;;;;;4972301;28;20050;-67
2022/06/15 03:58:23;;;;;;;0.00;0.00;;;17.00;91.00;;;;;;4969059;28;20032;-66
2022/06/15 04:00:49;;;;;;;0.00;0.00;;;16.90;91.40;;;;;;4974039;28;20023;-65
2022/06/15 04:03:15;;;;;;;0.00;0.00;;;16.90;91.70;;;;;;4970061;28;20372;-65
2022/06/15 04:05:45;;;;;;;0.00;0.00;;;16.90;91.80;;;;;;4970669;28;20632;-65
2022/06/15 04:08:35;;;;;;;0.00;0.00;;;16.90;92.00;;;;;;4935716;28;20090;-65
2022/06/15 04:11:58;;;;;;;0.00;0.00;;;16.80;92.50;;;;;;4970586;28;20064;-65
2022/06/15 04:13:58;;;;;;;0.00;0.00;;;16.80;93.00;;;;;;4970222;28;20046;-65
2022/06/15 04:16:24;;;;;;;1.55;0.30;;;16.80;92.70;;;;;;4967216;28;20034;-65
2022/06/15 04:18:50;;;;;;;0.08;0.08;;;16.80;92.90;;;;;;4982714;28;20065;-65
2022/06/15 04:21:16;;;;;;;0.10;0.03;;;16.80;92.90;;;;;;4971212;28;20642;-65
2022/06/15 04:23:41;;;;;;;0.20;0.17;;;16.80;92.90;;;;;;4971424;28;20506;-65
2022/06/15 04:26:09;;;;;;;0.25;0.25;;;16.80;93.20;;;;;;4971610;28;20035;-63
2022/06/15 04:28:39;;;;;;;0.52;0.52;;;16.70;93.30;;;;;;4969499;28;20479;-65
2022/06/15 04:31:06;;;;;;;0.00;0.00;;;16.80;93.40;;;;;;4971183;28;20030;-65
2022/06/15 04:33:32;;;;;;;0.08;0.08;;;16.90;93.30;;;;;;4970395;28;20034;-65
2022/06/15 04:35:58;;;;;;;0.00;0.00;;;16.90;93.30;;;;;;4986173;28;20026;-65
2022/06/15 04:38:24;;;;;;;0.80;0.80;;;16.90;93.40;;;;;;4969758;28;20030;-65
2022/06/15 04:40:51;;;;;;;4.53;1.45;;;16.90;94.80;;;;;;4969147;28;20031;-65
2022/06/15 04:43:17;;;;;;;0.43;0.43;;;17.00;93.80;;;;;;4974477;28;20479;-65
2022/06/15 04:45:43;;;;;;;0.40;0.40;;;16.60;94.30;;;;;;4973732;28;20039;-65
2022/06/15 04:48:10;;;;;;;2.53;1.30;;;16.70;94.50;;;;;;4973876;28;20031;-65
2022/06/15 04:50:37;;;;;;;0.10;0.10;;;16.80;94.80;;;;;;4974614;28;20476;-65
2022/06/15 04:53:05;;;;;;;0.10;0.08;;;16.90;94.50;;;;;;4973324;28;20097;-65
2022/06/15 04:55:31;;;;;;;0.28;0.13;;;16.90;94.50;;;;;;4975403;28;20027;-65
2022/06/15 04:57:58;;;;;;;0.00;0.00;;;17.00;94.30;;;;;;4975219;28;20637;-66
2022/06/15 05:00:29;;;;;;;0.47;0.47;;;17.10;94.40;;;;;;4972869;28;20030;-65
2022/06/15 05:02:55;;;;;;;;;;;17.20;93.90;;;;;;4976154;28;20041;-65
2022/06/15 05:05:21;;;;;;;0.28;0.28;;;17.10;94.00;;;;;;4975168;28;20333;-66
2022/06/15 05:07:47;;;;;;;0.00;0.00;;;17.20;93.70;;;;;;4982060;28;20076;-66
2022/06/15 05:10:19;;;;;;;0.52;0.45;;;17.30;93.30;;;;;;4993261;28;20037;-66
2022/06/15 05:12:45;;;;;;;0.73;0.40;;;17.30;93.60;;;;;;4992240;28;20039;-65
2022/06/15 05:15:13;;;;;;;1.45;0.68;;;17.40;93.50;;;;;;4985755;28;20402;-66
2022/06/15 05:17:41;;;;;;;0.40;0.20;;;17.50;93.30;;;;;;4973863;28;20035;-73
2022/06/15 05:20:09;;;;;;;0.00;0.00;;;17.50;93.10;;;;;;4974053;28;20026;-71
2022/06/15 05:22:37;;;;;;;0.00;0.00;;;17.60;93.00;;;;;;4974498;28;20034;-73
2022/06/15 05:25:08;;;;;;;0.15;0.15;;;17.70;92.80;;;;;;4973145;28;20493;-73
2022/06/15 05:27:34;;;;;;;;;;;17.80;92.50;;;;;;4955908;28;20031;-73
2022/06/15 05:30:00;;;;;;;0.65;0.45;;;17.90;92.40;;;;;;4972464;28;19910;-74
2022/06/15 05:32:26;;;;;;;0.20;0.20;;;18.00;92.20;;;;;;4972418;28;20042;-73
2022/06/15 05:34:55;;;;;;;0.22;0.20;;;18.00;92.10;;;;;;4971278;28;20823;-74
2022/06/15 05:37:22;;;;;;;0.32;0.10;;;18.10;92.00;;;;;;4971373;28;20031;-73
2022/06/15 05:39:48;;;;;;;0.00;0.00;;;18.10;92.10;;;;;;4970789;28;20030;-73
2022/06/15 05:42:15;;;;;;;0.00;0.00;;;18.20;92.30;;;;;;4973491;28;20546;-73
2022/06/15 05:44:51;;;;;;;0.00;0.00;;;18.30;92.10;;;;;;4973499;28;20039;-72
2022/06/15 05:47:17;;;;;;;0.00;0.00;;;18.30;91.70;;;;;;4973164;28;20037;-72
2022/06/15 05:49:43;;;;;;;2.13;0.75;;;18.50;91.50;;;;;;4988768;28;20039;-72
2022/06/15 05:52:09;;;;;;;0.00;0.00;;;18.60;91.30;;;;;;4971402;28;20023;-72
2022/06/15 05:54:35;;;;;;;0.05;0.05;;;18.60;91.30;;;;;;4972620;28;20034;-72
2022/06/15 05:57:01;;;;;;;1.98;1.17;;;18.60;91.30;;;;;;4973856;28;20031;-72
2022/06/15 05:59:27;;;;;;;0.15;0.15;;;18.80;91.00;;;;;;4973716;28;20022;-72
2022/06/15 06:01:53;;;;;;;0.10;0.10;;;18.90;90.90;;;;;;4974573;28;20118;-72
2022/06/15 06:04:20;;;;;;;1.40;0.52;;;19.00;90.60;;;;;;4972955;28;20126;-68
2022/06/15 06:06:48;;;;;;;3.40;0.52;;;19.00;90.50;;;;;;4973782;28;20027;-70
2022/06/15 06:09:14;;;;;;;0.20;0.20;;;19.00;90.60;;;;;;4974075;28;20390;-74
2022/06/15 06:11:40;;;;;;;0.00;0.00;;;19.00;90.70;;;;;;4974592;28;20542;-71
2022/06/15 06:14:08;;;;;;;0.30;0.28;;;19.20;90.80;;;;;;4988330;28;20113;-71
2022/06/15 06:16:33;;;;;;;0.20;0.08;;;19.20;91.10;;;;;;4986929;28;20502;-71
2022/06/15 06:18:59;;;;;;;0.25;0.15;;;19.30;91.00;;;;;;4972832;28;20027;-71
2022/06/15 06:21:25;;;;;;;1.55;0.80;;;19.40;91.10;;;;;;4973100;28;20475;-72
2022/06/15 06:23:51;;;;;;;0.65;0.63;;;19.50;90.70;;;;;;4972712;28;20077;-71
2022/06/15 06:26:24;;;;;;;0.00;0.00;;;19.60;90.70;;;;;;4952804;28;20088;-70
2022/06/15 06:28:51;;;;;;;1.65;0.38;;;19.60;90.90;;;;;;4968257;28;20118;-71
2022/06/15 06:31:20;;;;;;;0.00;0.00;;;19.70;90.50;;;;;;4968885;28;20038;-71
2022/06/15 06:33:47;;;;;;;0.00;0.00;;;19.80;90.40;;;;;;4953989;29;20042;-71
2022/06/15 06:36:29;;;;;;;0.15;0.10;;;20.00;90.00;;;;;;4953966;29;20508;-71
2022/06/15 06:38:56;;;;;;;0.15;0.10;;;20.00;89.80;;;;;;4972049;28;20027;-72
2022/06/15 06:41:25;;;;;;;0.20;0.20;;;20.10;88.40;;;;;;4973181;28;20561;-72
2022/06/15 06:43:51;;;;;;;0.00;0.00;;;20.10;89.20;;;;;;4988084;28;20466;-72
2022/06/15 06:46:17;;;;;;;0.35;0.35;;;20.20;89.00;;;;;;4973316;28;20498;-72
2022/06/15 06:48:43;;;;;;;0.22;0.08;;;20.30;89.30;;;;;;4987270;28;20043;-73
2022/06/15 06:51:09;;;;;;;6.70;1.05;;;20.30;88.90;;;;;;4988149;28;20181;-72
2022/06/15 06:53:36;;;;;;;0.00;0.00;;;20.40;88.60;;;;;;4972726;28;20031;-71
2022/06/15 06:56:05;;;;;;;0.25;0.25;;;20.50;88.00;;;;;;4973463;28;20035;-72
2022/06/15 06:58:31;;;;;;;1.02;0.52;;;20.60;88.00;;;;;;4971647;28;20085;-71
2022/06/15 07:00:57;;;;;;;0.10;0.05;;;20.70;87.60;;;;;;4972813;28;20121;-71
2022/06/15 07:03:23;;;;;;;0.22;0.22;;;20.80;86.90;;;;;;4971957;28;20042;-71
2022/06/15 07:05:49;;;;;;;1.00;0.45;;;20.90;86.40;;;;;;4972441;28;20031;-71
2022/06/15 07:08:15;;;;;;;1.30;0.52;;;21.10;85.80;;;;;;4971659;28;20165;-71
2022/06/15 07:10:42;;;;;;;0.00;0.00;;;21.20;85.80;;;;;;4971823;28;20419;-72
2022/06/15 07:13:08;;;;;;;0.05;0.05;;;21.20;85.60;;;;;;4972505;28;20501;-72
2022/06/15 07:15:35;;;;;;;0.60;0.50;;;21.30;85.50;;;;;;4972177;28;20037;-72
2022/06/15 07:18:01;;;;;;;0.30;0.30;;;21.50;84.30;;;;;;4972450;28;20390;-72
2022/06/15 07:20:29;;;;;;;0.20;0.20;;;21.50;84.20;;;;;;4971970;28;20507;-72
2022/06/15 07:22:55;;;;;;;0.20;0.20;;;21.60;84.40;;;;;;4955026;28;20355;-72
2022/06/15 07:25:21;;;;;;;0.00;0.00;;;21.60;84.00;;;;;;4972510;28;20030;-72
2022/06/15 07:27:49;;;;;;;1.05;0.95;;;21.70;83.60;;;;;;4971125;28;20031;-71
2022/06/15 07:30:20;;;;;;;0.60;0.45;;;21.80;83.20;;;;;;4971707;28;20055;-72
2022/06/15 07:32:46;;;;;;;;;;;22.00;82.90;;;;;;4971738;28;20038;-72
2022/06/15 07:35:22;;;;;;;0.85;0.80;;;22.00;82.20;;;;;;4972633;28;19918;-72
2022/06/15 07:37:51;;;;;;;0.93;0.70;;;22.10;82.60;;;;;;4970793;28;20045;-72
2022/06/15 07:40:19;;;;;;;0.00;0.00;;;22.20;82.60;;;;;;4970291;28;20035;-72
2022/06/15 07:42:45;;;;;;;0.25;0.17;;;22.30;82.00;;;;;;4972026;28;20038;-71
2022/06/15 07:45:13;;;;;;;0.30;0.30;;;22.40;81.70;;;;;;4971011;28;20023;-72
2022/06/15 07:50:24;;;;;;;0.20;0.20;;;22.50;81.50;;;;;;4972819;28;20628;-72
2022/06/15 07:52:52;;;;;;;0.10;0.10;;;22.60;81.50;;;;;;4964575;28;20035;-72
2022/06/15 07:55:32;;;;;;;0.25;0.13;;;22.80;80.80;;;;;;4971831;28;20487;-72
2022/06/15 07:58:00;;;;;;;9.93;0.55;;;22.80;80.50;;;;;;4972332;28;20493;-71
2022/06/15 08:00:28;;;;;;;25.88;2.67;;;22.80;79.90;;;;;;4972447;28;20027;-72
2022/06/15 08:02:54;;;;;;;0.10;0.10;;;22.80;80.30;;;;;;4990297;28;20026;-71
2022/06/15 08:05:21;;;;;;;3.00;0.80;;;22.80;80.10;;;;;;4990273;28;20034;-72
2022/06/15 08:07:49;;;;;;;0.15;0.15;;;22.90;80.70;;;;;;4991233;28;20556;-72
2022/06/15 08:10:19;;;;;;;0.65;0.65;;;23.10;80.60;;;;;;4989244;28;20376;-72
2022/06/15 08:12:45;;;;;;;0.00;0.00;;;23.40;79.40;;;;;;4990120;28;20545;-72
2022/06/15 08:15:12;;;;;;;0.35;0.28;;;23.30;78.80;;;;;;4990122;28;20030;-71
2022/06/15 08:17:54;;;;;;;0.20;0.20;;;23.50;79.40;;;;;;4988977;28;20096;-72
2022/06/15 08:20:36;;;;;;;0.13;0.10;;;23.60;77.90;;;;;;4988276;28;20022;-71
2022/06/15 08:23:10;;;;;;;1.45;0.55;;;23.70;77.10;;;;;;4975953;28;20038;-72
2022/06/15 08:25:45;;;;;;;0.17;0.15;;;23.80;77.10;;;;;;4970486;28;20658;-71
2022/06/15 08:28:14;;;;;;;0.20;0.17;;;23.70;77.40;;;;;;4970006;28;20034;-72
2022/06/15 08:30:40;;;;;;;0.22;0.22;;;23.80;77.30;;;;;;4987463;23;20121;-73
2022/06/15 08:33:08;;;;;;;0.10;0.10;;;23.80;77.30;;;;;;5000782;28;20522;-73
2022/06/15 08:35:38;;;;;;;1.08;0.95;;;23.90;76.30;;;;;;5010049;28;20135;-73
2022/06/15 08:38:12;;;;;;;1.67;0.70;;;24.00;76.00;;;;;;5025097;28;20033;-73
2022/06/15 08:40:58;;;;;;;0.47;0.47;;;24.10;75.50;;;;;;5024759;28;20034;-74
2022/06/15 08:43:57;;;;;;;1.15;0.77;;;24.10;75.40;;;;;;5009130;28;20026;-73
2022/06/15 08:46:45;;;;;;;0.08;0.08;;;24.10;75.50;;;;;;5009590;28;20084;-73
2022/06/15 08:49:28;;;;;;;1.13;1.00;;;24.30;75.70;;;;;;5008283;28;20030;-73
2022/06/15 08:52:01;;;;;;;0.80;0.68;;;24.40;74.90;;;;;;5025360;28;20045;-73
2022/06/15 08:54:59;;;;;;;0.00;0.00;;;24.40;76.40;;;;;;5009310;28;20072;-73
2022/06/15 08:57:45;;;;;;;0.00;0.00;;;24.50;74.60;;;;;;5010140;28;20132;-74
2022/06/15 09:00:26;;;;;;;0.47;0.35;;;24.50;74.90;;;;;;5008538;28;20030;-74
2022/06/15 09:03:22;;;;;;;0.38;0.30;;;24.60;74.50;;;;;;5009027;28;20297;-73
2022/06/15 09:06:44;;;;;;;12.43;0.85;;;24.60;75.00;;;;;;5025346;28;20041;-73
2022/06/15 09:09:46;;;;;;;0.45;0.15;;;24.90;74.70;;;;;;5006542;28;20034;-73
2022/06/15 09:15:26;;;;;;;0.77;0.43;;;25.30;74.00;;;;;;5010138;28;20036;-73
2022/06/15 09:17:55;;;;;;;0.00;0.00;;;25.30;73.10;;;;;;5009095;28;20053;-73
2022/06/15 09:20:28;;;;;;;0.10;0.10;;;25.40;73.70;;;;;;5008856;28;20030;-74
2022/06/15 09:23:23;;;;;;;0.32;0.32;;;25.50;72.50;;;;;;5004606;28;20027;-73
2022/06/15 09:25:58;;;;;;;0.10;0.10;;;25.50;73.20;;;;;;4974242;28;20069;-74
2022/06/15 09:28:34;;;;;;;0.25;0.20;;;25.80;72.20;;;;;;4990293;28;20072;-73
2022/06/15 09:31:09;;;;;;;0.10;0.10;;;25.80;71.80;;;;;;4993764;28;20041;-73
2022/06/15 09:33:42;;;;;;;17.98;1.50;;;25.90;71.90;;;;;;4992582;28;20088;-74
2022/06/15 09:36:14;;;;;;;12.98;0.98;;;25.90;71.90;;;;;;4992819;28;20513;-73
2022/06/15 09:38:41;;;;;;;5.22;1.27;;;26.10;72.20;;;;;;4991886;28;20054;-74
2022/06/15 09:41:33;;;;;;;0.13;0.10;;;26.10;71.20;;;;;;4993995;28;20521;-73
2022/06/15 09:44:23;;;;;;;1.02;0.13;;;26.20;71.70;;;;;;4994111;28;20502;-74
2022/06/15 09:47:13;;;;;;;0.30;0.25;;;26.50;70.60;;;;;;4994071;28;20475;-73
2022/06/15 09:50:08;;;;;;;0.88;0.63;;;26.70;70.60;;;;;;4991628;28;20042;-74
2022/06/15 09:52:59;;;;;;;0.10;0.10;;;26.90;71.00;;;;;;5003552;28;20076;-74
2022/06/15 09:55:36;;;;;;;0.25;0.17;;;27.00;69.90;;;;;;5006695;28;20022;-73
2022/06/15 09:58:05;;;;;;;0.43;0.38;;;27.00;69.40;;;;;;4992235;28;20026;-75
2022/06/15 10:00:31;;;;;;;1.70;1.05;;;27.20;69.70;;;;;;4991563;28;20022;-73
2022/06/15 10:03:03;;;;;;;0.00;0.00;;;27.20;68.80;;;;;;4992300;28;20034;-72
2022/06/15 10:05:39;;;;;;;0.10;0.10;;;27.10;69.40;;;;;;4992623;28;20376;-82
2022/06/15 10:08:15;;;;;;;0.68;0.68;;;27.20;69.40;;;;;;4992202;28;20074;-82
2022/06/15 10:10:57;;;;;;;0.13;0.13;;;27.00;69.00;;;;;;4990585;28;20030;-82
2022/06/15 10:13:35;;;;;;;0.20;0.20;;;27.10;68.70;;;;;;4991891;28;20030;-82
2022/06/15 10:16:23;;;;;;;5.40;0.30;;;27.00;69.60;;;;;;4992288;28;20053;-80
2022/06/15 10:19:06;;;;;;;0.88;0.55;;;27.30;68.90;;;;;;4991395;28;20041;-81
2022/06/15 10:21:35;;;;;;;0.10;0.10;;;27.20;67.70;;;;;;4993642;28;20482;-80
2022/06/15 10:24:33;;;;;;;0.32;0.32;;;27.40;68.40;;;;;;5011202;28;20029;-82
2022/06/15 10:27:30;;;;;;;0.98;0.47;;;27.70;67.70;;;;;;5011810;28;20560;-81
2022/06/15 10:30:07;;;;;;;0.00;0.00;;;27.70;66.70;;;;;;5010839;28;20033;-81
2022/06/15 10:32:58;;;;;;;0.47;0.38;;;27.40;67.10;;;;;;5011230;28;20036;-81
2022/06/15 10:35:27;;;;;;;0.65;0.30;;;27.70;67.50;;;;;;5011426;28;20042;-81
2022/06/15 10:38:01;;;;;;;1.08;0.63;;;27.70;66.40;;;;;;5011299;28;20036;-81
2022/06/15 10:40:37;;;;;;;0.25;0.15;;;28.00;66.40;;;;;;4993501;28;20368;-80
2022/06/15 10:43:16;;;;;;;0.63;0.38;;;28.10;66.50;;;;;;5010998;28;20073;-81
2022/06/15 10:46:04;;;;;;;1.30;0.88;;;28.80;65.80;;;;;;5011951;28;20440;-82
2022/06/15 10:48:47;;;;;;;0.28;0.20;;;28.80;64.80;;;;;;5012000;28;20040;-82
2022/06/15 10:51:38;;;;;;;0.05;0.05;;;28.90;64.20;;;;;;5015000;28;20457;-82
2022/06/15 10:54:29;;;;;;;0.30;0.15;;;28.80;65.00;;;;;;5011230;28;20362;-82
2022/06/15 11:03:29;;;;;;;2.40;1.45;;;28.80;64.20;;;;;;5011062;28;20037;-81
2022/06/15 11:05:58;;;;;;;1.15;0.40;;;29.30;65.00;;;;;;5011867;28;20112;-80
2022/06/15 11:08:29;;;;;;;0.10;0.10;;;29.40;63.10;;;;;;5010340;28;20490;-80
2022/06/15 11:11:26;;;;;;;0.70;0.65;;;29.50;64.40;;;;;;5010506;28;20091;-81
2022/06/15 11:14:05;;;;;;;0.98;0.68;;;29.80;62.70;;;;;;5010179;28;20144;-81
2022/06/15 11:19:25;;;;;;;0.00;0.00;;;30.00;61.40;;;;;;5009785;28;20601;-81
2022/06/15 11:22:04;;;;;;;0.03;0.03;;;30.10;61.70;;;;;;5010775;28;20030;-81
2022/06/15 11:24:59;;;;;;;0.52;0.52;;;30.20;61.50;;;;;;5011532;28;20038;-81
2022/06/15 11:27:31;;;;;;;0.75;0.40;;;30.50;61.10;;;;;;5010989;28;20132;-80
2022/06/15 11:30:20;;;;;;;2.72;1.55;;;30.50;60.10;;;;;;5010849;28;20034;-81
2022/06/15 11:33:23;;;;;;;0.45;0.43;;;30.60;60.00;;;;;;5010191;28;20710;-81
2022/06/15 11:36:03;;;;;;;1.35;0.80;;;30.30;60.00;;;;;;5008793;28;20049;-81
2022/06/15 11:38:54;;;;;;;2.30;1.17;;;30.50;59.80;;;;;;5010885;28;20030;-82
2022/06/15 11:41:32;;;;;;;0.10;0.10;;;30.40;58.70;;;;;;5010154;28;20088;-82
2022/06/15 11:44:00;;;;;;;0.00;0.00;;;30.50;58.20;;;;;;5010295;28;20450;-82
2022/06/15 11:47:03;;;;;;;0.65;0.43;;;30.70;59.30;;;;;;5009548;28;20038;-81
2022/06/15 11:50:01;;;;;;;0.00;0.00;;;30.80;57.50;;;;;;5010761;28;20104;-80
2022/06/15 11:53:12;;;;;;;0.10;0.10;;;30.60;57.50;;;;;;5009436;28;20473;-81
2022/06/15 11:56:08;;;;;;;0.25;0.25;;;30.90;56.90;;;;;;5010991;28;20167;-81
2022/06/15 11:58:44;;;;;;;0.10;0.08;;;30.70;57.00;;;;;;5008704;28;20036;-82
2022/06/15 12:01:57;;;;;;;0.10;0.10;;;30.70;57.50;;;;;;4990777;28;20085;-82
2022/06/15 12:04:48;;;;;;;0.22;0.20;;;30.30;58.40;;;;;;4965262;28;20097;-80
2022/06/15 12:07:22;;;;;;;;;;;30.50;56.70;;;;;;4990005;28;20435;-80
2022/06/15 12:10:03;;;;;;;0.00;0.00;;;30.80;58.00;;;;;;4990031;28;19917;-80
2022/06/15 12:12:41;;;;;;;;;;;31.10;57.60;;;;;;4991483;28;20129;-81
2022/06/15 12:15:34;;;;;;;1.73;1.35;;;31.00;57.10;;;;;;4989667;28;20008;-81
2022/06/15 12:18:23;;;;;;;0.77;0.50;;;31.10;58.70;;;;;;4991383;28;20093;-80
2022/06/15 12:21:25;;;;;;;10.40;1.55;;;31.00;57.60;;;;;;4990280;28;20089;-81
2022/06/15 12:24:12;;;;;;;0.13;0.13;;;31.30;58.80;;;;;;4969841;28;20124;-80
2022/06/15 12:27:04;;;;;;;1.75;0.82;;;31.40;57.00;;;;;;4970563;28;20041;-81
2022/06/15 12:29:56;;;;;;;7.20;0.63;;;31.30;56.50;;;;;;4969835;28;20165;-80
2022/06/15 12:32:36;;;;;;;0.93;0.40;;;31.80;57.30;;;;;;4969773;28;20450;-80
2022/06/15 12:35:26;;;;;;;2.13;0.30;;;32.20;55.80;;;;;;4970316;28;20467;-79
2022/06/15 12:38:35;;;;;;;;;;;32.20;55.70;;;;;;4970473;28;20289;-78
2022/06/15 12:41:06;;;;;;;0.75;0.57;;;31.70;55.00;;;;;;4971263;28;19932;-79
2022/06/15 12:43:41;;;;;;;0.52;0.30;;;31.80;56.70;;;;;;4971314;28;20113;-80
2022/06/15 12:46:14;;;;;;;12.02;2.08;;;32.20;56.10;;;;;;4970073;28;20716;-79
2022/06/15 12:48:51;;;;;;;0.82;0.47;;;32.60;56.20;;;;;;4970800;28;20039;-79
2022/06/15 12:52:11;;;;;;;0.40;0.40;;;33.00;55.70;;;;;;4971545;28;20042;-78
2022/06/15 12:55:37;;;;;;;0.10;0.10;;;32.80;56.20;;;;;;4971234;28;20045;-79
2022/06/15 12:58:12;;;;;;;0.00;0.00;;;33.00;54.90;;;;;;5007618;28;20117;-79
2022/06/15 13:01:18;;;;;;;0.20;0.10;;;33.00;54.80;;;;;;5006806;28;20525;-78
2022/06/15 13:04:22;;;;;;;0.55;0.55;;;32.60;54.10;;;;;;4975050;28;20137;-79
2022/06/15 13:07:25;;;;;;;4.65;0.80;;;32.80;53.60;;;;;;4974866;28;20035;-79
2022/06/15 13:10:32;;;;;;;0.10;0.05;;;33.00;54.70;;;;;;4974192;28;20518;-79
2022/06/15 13:13:04;;;;;;;0.10;0.10;;;32.20;55.40;;;;;;4975308;28;20041;-79
2022/06/15 13:16:14;;;;;;;0.15;0.15;;;32.60;53.70;;;;;;4973976;28;20056;-78
2022/06/15 13:18:52;;;;;;;0.45;0.45;;;32.70;53.30;;;;;;4991029;28;20122;-78
2022/06/15 13:21:22;;;;;;;1.83;0.50;;;33.20;51.60;;;;;;4989536;28;20081;-77
2022/06/15 13:24:06;;;;;;;0.30;0.30;;;33.20;51.50;;;;;;5012665;28;20730;-78
2022/06/15 13:26:37;;;;;;;4.65;2.67;;;33.40;52.70;;;;;;5013013;28;20038;-79
2022/06/15 13:29:03;;;;;;;0.10;0.10;;;34.00;50.50;;;;;;5013342;28;20037;-79
2022/06/15 13:31:52;;;;;;;0.30;0.30;;;34.10;50.00;;;;;;5013481;28;20571;-79
2022/06/15 13:34:33;;;;;;;0.80;0.80;;;33.50;49.70;;;;;;5013502;28;20121;-79
2022/06/15 13:37:23;;;;;;;0.20;0.10;;;33.80;50.20;;;;;;5013431;28;20088;-79
2022/06/15 13:40:00;;;;;;;1.35;0.45;;;33.10;49.30;;;;;;5013011;28;20122;-80
2022/06/15 13:42:40;;;;;;;0.00;0.00;;;34.30;49.20;;;;;;5013606;28;20041;-79
2022/06/15 13:45:21;;;;;;;;;;;34.80;48.70;;;;;;5013547;28;20532;-79
2022/06/15 13:48:00;;;;;;;0.85;0.52;;;34.00;49.70;;;;;;5013570;28;20366;-77
2022/06/15 13:50:41;;;;;;;0.45;0.45;;;33.80;48.70;;;;;;5011718;28;20421;-77